Time;durP1;ratioP1;P1;durP2;ratioP2;P2;SDS_P1;SDS_P2;PMS_P1;PMS_P2;Temp;Humidity;BMP_temperature;BMP_pressure;BME280_temperature;BME280_humidity;BME280_pressure;Samples;Min_cycle;Max_cycle;Signal;HPM_P1;HPM_P2
2023/08/30 00:00:11;;;;;;;11.03;8.40;;;13.30;99.90;;;;;;5088146;28;20916;-67
2023/08/30 00:02:36;;;;;;;12.70;10.33;;;13.40;99.90;;;;;;5089789;28;20728;-67
2023/08/30 00:05:03;;;;;;;12.80;9.00;;;13.40;99.90;;;;;;5088078;28;20451;-67
2023/08/30 00:07:30;;;;;;;10.67;8.73;;;13.30;99.90;;;;;;5089560;28;20251;-67
2023/08/30 00:09:57;;;;;;;10.50;9.40;;;13.30;99.90;;;;;;5089339;28;20455;-67
2023/08/30 00:12:23;;;;;;;13.43;10.40;;;13.20;99.90;;;;;;5089377;28;20451;-67
2023/08/30 00:14:49;;;;;;;10.73;9.73;;;13.20;99.90;;;;;;5087819;28;20476;-67
2023/08/30 00:17:14;;;;;;;10.97;9.87;;;13.20;99.90;;;;;;5089306;28;20190;-67
2023/08/30 00:19:40;;;;;;;11.10;10.00;;;13.20;99.90;;;;;;5089366;28;20219;-67
2023/08/30 00:22:08;;;;;;;16.50;10.37;;;13.20;99.90;;;;;;5087686;28;20210;-67
2023/08/30 00:24:35;;;;;;;11.43;10.23;;;13.20;99.90;;;;;;5088965;28;20207;-67
2023/08/30 00:27:01;;;;;;;11.60;10.40;;;13.20;99.90;;;;;;5087513;28;20830;-67
2023/08/30 00:29:27;;;;;;;10.33;9.23;;;13.20;99.90;;;;;;5089066;28;20425;-67
2023/08/30 00:31:53;;;;;;;10.50;9.50;;;13.20;99.90;;;;;;5089234;28;20424;-67
2023/08/30 00:34:19;;;;;;;12.27;10.97;;;13.30;99.90;;;;;;5088954;28;20467;-67
2023/08/30 00:36:44;;;;;;;12.23;10.93;;;13.30;99.90;;;;;;5088951;28;20214;-68
2023/08/30 00:39:10;;;;;;;16.70;11.77;;;13.30;99.90;;;;;;5088882;28;20307;-68
2023/08/30 00:41:35;;;;;;;11.30;10.10;;;13.30;99.90;;;;;;5088708;28;20182;-68
2023/08/30 00:44:01;;;;;;;11.40;10.30;;;13.40;99.90;;;;;;5088732;28;20217;-68
2023/08/30 00:46:28;;;;;;;12.80;10.80;;;13.40;99.90;;;;;;5088036;28;20718;-68
2023/08/30 00:48:54;;;;;;;15.50;10.53;;;13.40;99.90;;;;;;5088984;28;20565;-68
2023/08/30 00:51:20;;;;;;;14.53;11.97;;;13.40;99.90;;;;;;5088799;28;20417;-67
2023/08/30 00:53:46;;;;;;;13.73;11.90;;;13.40;99.90;;;;;;5088593;28;20213;-68
2023/08/30 00:56:12;;;;;;;18.30;11.10;;;13.40;99.90;;;;;;5088495;28;20436;-67
2023/08/30 00:58:38;;;;;;;13.20;11.80;;;13.50;99.90;;;;;;5088752;28;20808;-67
2023/08/30 01:01:07;;;;;;;13.47;10.73;;;13.50;99.90;;;;;;5088840;28;20595;-68
2023/08/30 01:03:32;;;;;;;13.13;11.70;;;13.40;99.90;;;;;;5088527;28;20603;-68
2023/08/30 01:05:58;;;;;;;12.93;10.10;;;13.40;99.90;;;;;;5088587;28;20436;-67
2023/08/30 01:08:24;;;;;;;10.60;9.57;;;13.40;99.90;;;;;;5087298;28;20179;-68
2023/08/30 01:11:11;;;;;;;13.23;10.90;;;13.50;99.90;;;;;;5088563;28;20185;-68
2023/08/30 01:14:11;;;;;;;14.73;10.33;;;13.50;99.90;;;;;;5088825;28;20210;-67
2023/08/30 01:16:37;;;;;;;13.60;10.67;;;13.30;99.90;;;;;;5088319;28;20459;-67
2023/08/30 01:19:33;;;;;;;20.13;11.20;;;13.30;99.90;;;;;;5088796;28;20471;-67
2023/08/30 01:22:08;;;;;;;19.30;12.00;;;13.20;99.90;;;;;;5088576;28;20955;-67
2023/08/30 01:25:09;;;;;;;17.00;11.77;;;13.10;99.90;;;;;;5088458;28;20434;-67
2023/08/30 01:27:37;;;;;;;13.70;11.07;;;13.00;99.90;;;;;;5088308;28;20407;-66
2023/08/30 01:30:05;;;;;;;13.33;11.33;;;13.00;99.90;;;;;;5088265;28;20448;-68
2023/08/30 01:32:33;;;;;;;14.53;11.47;;;13.00;99.90;;;;;;5086848;28;21129;-68
2023/08/30 01:35:00;;;;;;;14.83;12.57;;;12.90;99.90;;;;;;5086972;28;21107;-68
2023/08/30 01:37:27;;;;;;;11.07;9.63;;;13.00;99.90;;;;;;5088709;28;20959;-68
2023/08/30 01:39:57;;;;;;;14.33;11.00;;;13.00;99.90;;;;;;5088593;28;20876;-67
2023/08/30 01:42:26;;;;;;;12.90;11.60;;;12.90;99.90;;;;;;5087084;28;20468;-68
2023/08/30 01:44:57;;;;;;;22.70;12.73;;;12.80;99.90;;;;;;5088379;28;20456;-68
2023/08/30 01:47:25;;;;;;;14.37;12.07;;;12.70;99.90;;;;;;5088586;28;20970;-67
2023/08/30 01:49:53;;;;;;;14.30;12.57;;;12.60;99.90;;;;;;5088458;28;20431;-68
2023/08/30 01:52:19;;;;;;;18.63;13.40;;;12.70;99.90;;;;;;5088271;28;20419;-68
2023/08/30 01:54:46;;;;;;;16.27;12.37;;;12.60;99.90;;;;;;5088192;28;20576;-68
2023/08/30 01:57:12;;;;;;;14.13;12.10;;;12.60;99.90;;;;;;5090378;28;20768;-67
2023/08/30 01:59:37;;;;;;;15.20;12.30;;;12.60;99.90;;;;;;5092312;28;20431;-68
2023/08/30 02:02:04;;;;;;;15.47;12.30;;;12.60;99.90;;;;;;5092190;28;20834;-67
2023/08/30 02:04:31;;;;;;;16.67;12.17;;;12.60;99.90;;;;;;5091107;28;20213;-69
2023/08/30 02:07:07;;;;;;;18.83;12.50;;;12.60;99.90;;;;;;5092193;28;20942;-68
2023/08/30 02:09:53;;;;;;;14.53;12.60;;;12.60;99.90;;;;;;5092271;28;20964;-67
2023/08/30 02:12:22;;;;;;;15.70;13.20;;;12.70;99.90;;;;;;5092170;28;20422;-67
2023/08/30 02:14:49;;;;;;;18.70;12.70;;;12.60;99.90;;;;;;5092109;28;21005;-67
2023/08/30 02:17:15;;;;;;;15.20;13.27;;;12.70;99.90;;;;;;5090773;28;20416;-67
2023/08/30 02:19:42;;;;;;;12.47;11.17;;;12.70;99.90;;;;;;5092321;28;20416;-67
2023/08/30 02:22:08;;;;;;;11.53;10.33;;;12.80;99.90;;;;;;5090884;28;20472;-69
2023/08/30 02:24:34;;;;;;;17.17;11.63;;;12.80;99.90;;;;;;5092112;28;20467;-67
2023/08/30 02:26:59;;;;;;;13.67;12.03;;;12.80;99.90;;;;;;5092167;28;20257;-68
2023/08/30 02:29:25;;;;;;;12.70;10.70;;;12.60;99.90;;;;;;5073923;28;20274;-67
2023/08/30 02:31:51;;;;;;;23.43;12.67;;;12.60;99.90;;;;;;5092432;28;20202;-67
2023/08/30 02:34:16;;;;;;;14.90;10.43;;;12.50;99.90;;;;;;5092249;28;20303;-68
2023/08/30 02:36:42;;;;;;;13.10;11.73;;;12.30;99.90;;;;;;5092328;28;20179;-67
2023/08/30 02:39:07;;;;;;;13.70;11.30;;;12.40;99.90;;;;;;5092248;28;20664;-67
2023/08/30 02:41:34;;;;;;;13.70;11.47;;;12.40;99.90;;;;;;5092242;28;20192;-67
2023/08/30 02:43:59;;;;;;;15.43;10.60;;;12.30;99.90;;;;;;5090857;28;20182;-67
2023/08/30 02:46:25;;;;;;;10.87;9.70;;;12.30;99.90;;;;;;5090826;28;20423;-67
2023/08/30 02:48:51;;;;;;;15.67;11.80;;;12.50;99.90;;;;;;5092078;28;20912;-68
2023/08/30 02:51:17;;;;;;;13.33;10.47;;;12.60;99.90;;;;;;5092046;28;20557;-67
2023/08/30 02:53:42;;;;;;;10.90;9.80;;;12.70;99.90;;;;;;5092156;28;20229;-68
2023/08/30 02:56:08;;;;;;;14.63;10.40;;;12.60;99.90;;;;;;5091649;28;20922;-68
2023/08/30 02:58:34;;;;;;;12.80;10.53;;;12.70;99.90;;;;;;5091515;28;20187;-68
2023/08/30 03:01:01;;;;;;;11.67;9.87;;;12.60;99.90;;;;;;5091378;28;20703;-67
2023/08/30 03:03:26;;;;;;;12.03;9.77;;;12.70;99.90;;;;;;5089755;28;20241;-68
2023/08/30 03:05:52;;;;;;;12.97;10.17;;;12.80;99.90;;;;;;5091052;28;20624;-67
2023/08/30 03:08:17;;;;;;;12.77;9.50;;;12.80;99.90;;;;;;5090343;28;20206;-67
2023/08/30 03:10:43;;;;;;;10.23;9.23;;;12.80;99.90;;;;;;5091031;28;20259;-68
2023/08/30 03:13:09;;;;;;;11.97;9.87;;;12.80;99.90;;;;;;5089794;28;20587;-67
2023/08/30 03:15:34;;;;;;;10.17;9.17;;;12.80;99.90;;;;;;5091108;28;20289;-67
2023/08/30 03:18:01;;;;;;;10.33;9.30;;;12.80;99.90;;;;;;5091096;28;20263;-68
2023/08/30 03:20:28;;;;;;;8.67;7.77;;;12.80;99.90;;;;;;5089340;28;20242;-67
2023/08/30 03:22:55;;;;;;;9.53;8.53;;;12.80;99.90;;;;;;5090610;28;20852;-67
2023/08/30 03:25:21;;;;;;;11.67;9.43;;;12.90;99.90;;;;;;5090759;28;20436;-67
2023/08/30 03:27:46;;;;;;;13.43;9.53;;;12.90;99.90;;;;;;5090785;28;20432;-68
2023/08/30 03:30:12;;;;;;;10.43;9.33;;;13.00;99.90;;;;;;5090617;28;20265;-67
2023/08/30 03:32:38;;;;;;;13.37;10.60;;;13.00;99.90;;;;;;5090834;28;20665;-67
2023/08/30 03:35:04;;;;;;;11.57;9.63;;;12.90;99.90;;;;;;5088748;28;20459;-67
2023/08/30 03:37:30;;;;;;;11.70;10.30;;;12.90;99.90;;;;;;5089070;28;20205;-67
2023/08/30 03:39:56;;;;;;;13.93;10.80;;;12.90;99.90;;;;;;5090438;28;20424;-68
2023/08/30 03:42:21;;;;;;;9.97;8.97;;;12.80;99.90;;;;;;5090135;28;20218;-67
2023/08/30 03:44:47;;;;;;;8.93;7.47;;;12.90;99.90;;;;;;5090136;28;20281;-67
2023/08/30 03:47:12;;;;;;;10.43;9.00;;;12.90;99.90;;;;;;5090144;28;20248;-67
2023/08/30 03:49:38;;;;;;;12.83;9.47;;;13.00;99.90;;;;;;5090075;28;20190;-68
2023/08/30 03:52:04;;;;;;;12.80;8.60;;;12.90;99.90;;;;;;5089958;28;20191;-67
2023/08/30 03:54:29;;;;;;;10.83;9.17;;;12.90;99.90;;;;;;5089782;28;20222;-67
2023/08/30 03:56:55;;;;;;;13.07;9.50;;;12.80;99.90;;;;;;5088524;28;20417;-67
2023/08/30 03:59:22;;;;;;;11.47;8.60;;;12.80;99.90;;;;;;5089816;28;20187;-67
2023/08/30 04:01:48;;;;;;;9.90;8.90;;;12.80;99.90;;;;;;5089831;28;20209;-67
2023/08/30 04:04:14;;;;;;;9.77;8.77;;;12.80;99.90;;;;;;5089730;28;20427;-68
2023/08/30 04:06:40;;;;;;;9.60;8.23;;;12.70;99.90;;;;;;5089714;28;20431;-67
2023/08/30 04:09:06;;;;;;;8.20;7.50;;;12.60;99.90;;;;;;5089727;28;20920;-67
2023/08/30 04:11:32;;;;;;;10.57;7.77;;;12.70;99.90;;;;;;5088219;28;20190;-67
2023/08/30 04:13:58;;;;;;;9.83;8.83;;;12.70;99.90;;;;;;5089663;28;20201;-67
2023/08/30 04:16:23;;;;;;;11.20;8.30;;;12.70;99.90;;;;;;5089518;28;20456;-67
2023/08/30 04:18:49;;;;;;;10.73;9.00;;;12.70;99.90;;;;;;5089427;28;20651;-67
2023/08/30 04:21:14;;;;;;;9.60;8.67;;;12.70;99.90;;;;;;5089417;28;20273;-67
2023/08/30 04:23:40;;;;;;;10.43;9.33;;;12.80;99.90;;;;;;5089377;28;20251;-67
2023/08/30 04:26:05;;;;;;;18.00;8.47;;;12.80;99.90;;;;;;5089290;28;20195;-67
2023/08/30 04:28:31;;;;;;;9.60;8.30;;;12.80;99.90;;;;;;5087940;28;20779;-68
2023/08/30 04:30:57;;;;;;;8.87;8.00;;;12.80;99.90;;;;;;5088045;28;20244;-67
2023/08/30 04:33:26;;;;;;;11.10;8.50;;;12.80;99.90;;;;;;5089247;28;20265;-67
2023/08/30 04:35:53;;;;;;;10.50;8.27;;;12.80;99.90;;;;;;5087831;28;20202;-67
2023/08/30 04:38:19;;;;;;;10.17;8.33;;;12.80;99.90;;;;;;5089484;28;20496;-67
2023/08/30 04:40:45;;;;;;;11.87;7.77;;;12.70;99.90;;;;;;5087914;28;20439;-67
2023/08/30 04:43:11;;;;;;;14.70;8.70;;;12.70;99.90;;;;;;5089295;28;20473;-67
2023/08/30 04:45:37;;;;;;;9.17;7.50;;;12.70;99.90;;;;;;5087934;28;20536;-67
2023/08/30 04:48:03;;;;;;;11.00;8.77;;;12.80;99.90;;;;;;5089363;28;20221;-67
2023/08/30 04:50:28;;;;;;;13.43;8.17;;;12.80;99.90;;;;;;5087009;28;20193;-67
2023/08/30 04:52:54;;;;;;;11.10;8.50;;;12.80;99.90;;;;;;5088366;28;20421;-67
2023/08/30 04:55:20;;;;;;;9.30;7.97;;;12.80;99.90;;;;;;5088195;28;20214;-67
2023/08/30 04:57:47;;;;;;;8.40;7.67;;;12.90;99.90;;;;;;5086685;28;20182;-67
2023/08/30 05:00:13;;;;;;;10.80;9.00;;;12.80;99.90;;;;;;5088443;28;20182;-67
2023/08/30 05:02:40;;;;;;;12.17;8.53;;;12.90;99.90;;;;;;5088044;28;20468;-67
2023/08/30 05:05:06;;;;;;;9.90;7.83;;;12.90;99.90;;;;;;5086672;28;20825;-67
2023/08/30 05:07:32;;;;;;;11.97;8.77;;;12.90;99.90;;;;;;5088011;28;20420;-67
2023/08/30 05:09:57;;;;;;;11.73;10.47;;;12.90;99.90;;;;;;5087916;28;20424;-67
2023/08/30 05:12:23;;;;;;;10.00;9.00;;;12.80;99.90;;;;;;5087562;28;20270;-67
2023/08/30 05:14:48;;;;;;;10.60;9.50;;;12.80;99.90;;;;;;5087565;28;21027;-67
2023/08/30 05:17:14;;;;;;;9.83;8.63;;;12.70;99.90;;;;;;5087242;28;20189;-67
2023/08/30 05:19:39;;;;;;;10.67;9.57;;;12.80;99.90;;;;;;5087620;28;20193;-67
2023/08/30 05:22:05;;;;;;;10.63;8.30;;;12.80;99.90;;;;;;5085866;28;20246;-66
2023/08/30 05:24:31;;;;;;;9.73;8.67;;;12.80;99.90;;;;;;5087476;28;20274;-67
2023/08/30 05:26:56;;;;;;;9.87;8.87;;;12.80;99.90;;;;;;5087439;28;20968;-66
2023/08/30 05:29:22;;;;;;;9.77;8.77;;;12.80;99.90;;;;;;5087720;28;20194;-67
2023/08/30 05:31:48;;;;;;;9.80;8.30;;;12.70;99.90;;;;;;5087573;28;20190;-67
2023/08/30 05:34:13;;;;;;;9.20;8.23;;;12.90;99.90;;;;;;5090614;28;20269;-67
2023/08/30 05:36:39;;;;;;;8.60;7.70;;;13.00;99.90;;;;;;5092038;28;20178;-66
2023/08/30 05:39:05;;;;;;;11.13;8.53;;;13.00;99.90;;;;;;5090390;28;20193;-66
2023/08/30 05:41:31;;;;;;;9.77;8.83;;;12.90;99.90;;;;;;5091896;28;20193;-66
2023/08/30 05:43:56;;;;;;;11.97;8.73;;;12.80;99.90;;;;;;5091803;28;20424;-66
2023/08/30 05:46:22;;;;;;;10.23;9.13;;;12.90;99.90;;;;;;5073105;28;20209;-66
2023/08/30 05:48:48;;;;;;;9.33;8.10;;;12.90;99.90;;;;;;5091630;28;20517;-67
2023/08/30 05:51:13;;;;;;;9.60;8.57;;;13.00;99.90;;;;;;5089877;28;20194;-67
2023/08/30 05:53:39;;;;;;;14.47;8.20;;;13.10;99.90;;;;;;5091392;28;20637;-67
2023/08/30 05:56:04;;;;;;;8.70;7.80;;;13.10;99.90;;;;;;5091777;28;20225;-67
2023/08/30 05:58:30;;;;;;;8.27;7.47;;;13.00;99.90;;;;;;5091709;28;20639;-67
2023/08/30 06:00:56;;;;;;;8.10;7.30;;;13.10;99.90;;;;;;5091573;28;20182;-67
2023/08/30 06:03:22;;;;;;;7.03;6.37;;;13.20;99.90;;;;;;5091566;28;20567;-67
2023/08/30 06:05:48;;;;;;;7.43;6.50;;;13.30;99.90;;;;;;5092021;28;20446;-68
2023/08/30 06:08:14;;;;;;;8.00;6.47;;;13.30;99.90;;;;;;5090021;28;20463;-67
2023/08/30 06:10:40;;;;;;;10.00;6.70;;;13.40;99.90;;;;;;5089643;28;20503;-68
2023/08/30 06:13:06;;;;;;;6.57;5.97;;;13.40;99.90;;;;;;5091314;28;20523;-68
2023/08/30 06:15:31;;;;;;;7.47;5.83;;;13.50;99.90;;;;;;5091106;28;20246;-67
2023/08/30 06:17:58;;;;;;;6.50;5.83;;;13.50;99.90;;;;;;5090791;28;20625;-67
2023/08/30 06:20:24;;;;;;;7.93;5.80;;;13.70;99.90;;;;;;5090742;28;20424;-68
2023/08/30 06:22:49;;;;;;;6.80;5.60;;;13.80;99.90;;;;;;5089064;28;20471;-67
2023/08/30 06:25:15;;;;;;;12.63;6.03;;;13.90;99.90;;;;;;5090354;28;20559;-67
2023/08/30 06:27:58;;;;;;;6.93;5.00;;;13.90;99.90;;;;;;5090410;28;20210;-68
2023/08/30 06:30:29;;;;;;;5.53;4.97;;;14.00;99.90;;;;;;5090266;28;20182;-68
2023/08/30 06:32:55;;;;;;;4.50;4.10;;;14.00;99.90;;;;;;5090389;28;20427;-67
2023/08/30 06:35:21;;;;;;;5.97;5.27;;;14.20;99.90;;;;;;5088493;28;20451;-67
2023/08/30 06:37:46;;;;;;;6.50;5.57;;;14.10;99.90;;;;;;5090119;28;20424;-68
2023/08/30 06:40:12;;;;;;;7.30;5.73;;;14.10;99.90;;;;;;5090081;28;20431;-67
2023/08/30 06:42:38;;;;;;;8.97;5.27;;;14.20;99.90;;;;;;5089405;28;20579;-67
2023/08/30 06:45:04;;;;;;;5.50;5.10;;;14.20;99.90;;;;;;5087784;28;20237;-66
2023/08/30 06:47:30;;;;;;;5.07;4.63;;;14.20;99.90;;;;;;5090040;28;20499;-67
2023/08/30 06:49:55;;;;;;;7.40;5.77;;;14.30;99.90;;;;;;5089896;28;20449;-68
2023/08/30 06:52:21;;;;;;;9.00;6.40;;;14.30;99.90;;;;;;5090018;28;20581;-67
2023/08/30 06:54:46;;;;;;;6.90;5.70;;;14.50;99.90;;;;;;5089717;28;20226;-67
2023/08/30 06:57:12;;;;;;;6.00;5.50;;;14.60;99.90;;;;;;5089949;28;20191;-67
2023/08/30 06:59:38;;;;;;;7.70;5.53;;;14.60;99.90;;;;;;5089951;28;20186;-67
2023/08/30 07:02:03;;;;;;;6.50;5.90;;;14.60;99.90;;;;;;5090916;28;20211;-67
2023/08/30 07:04:29;;;;;;;5.40;4.53;;;14.70;99.90;;;;;;5090544;28;20290;-67
2023/08/30 07:06:55;;;;;;;4.87;4.47;;;14.90;99.90;;;;;;5090402;28;20455;-67
2023/08/30 07:09:23;;;;;;;5.33;4.33;;;15.00;99.90;;;;;;5090227;28;20180;-67
2023/08/30 07:11:49;;;;;;;7.00;4.47;;;15.10;99.90;;;;;;5088525;28;20586;-68
2023/08/30 07:14:14;;;;;;;4.50;3.40;;;15.10;99.90;;;;;;5089994;28;20421;-67
2023/08/30 07:16:41;;;;;;;5.00;4.47;;;15.20;99.90;;;;;;5088509;28;20187;-67
2023/08/30 07:19:06;;;;;;;4.40;4.00;;;15.20;99.90;;;;;;5089908;28;20244;-67
2023/08/30 07:21:34;;;;;;;4.00;3.70;;;15.00;99.90;;;;;;5089515;28;20419;-67
2023/08/30 07:24:00;;;;;;;6.57;3.90;;;15.20;99.90;;;;;;5089425;28;20200;-66
2023/08/30 07:26:25;;;;;;;10.60;3.47;;;15.20;99.90;;;;;;5089358;28;20825;-66
2023/08/30 07:28:51;;;;;;;4.00;3.70;;;15.30;99.90;;;;;;5089274;28;20214;-67
2023/08/30 07:31:18;;;;;;;3.97;2.93;;;15.50;99.90;;;;;;5089336;28;20191;-67
2023/08/30 07:33:44;;;;;;;4.33;4.00;;;15.70;99.90;;;;;;5089128;28;20178;-67
2023/08/30 07:36:11;;;;;;;4.60;3.77;;;15.50;99.90;;;;;;5088980;28;20430;-66
2023/08/30 07:38:36;;;;;;;4.60;4.20;;;15.50;99.90;;;;;;5087600;28;21039;-67
2023/08/30 07:41:02;;;;;;;6.10;4.77;;;15.50;99.90;;;;;;5088965;28;20438;-66
2023/08/30 07:43:28;;;;;;;4.77;3.57;;;15.60;99.90;;;;;;5088601;28;20845;-66
2023/08/30 07:45:53;;;;;;;5.23;3.67;;;15.60;99.90;;;;;;5088699;28;20199;-66
2023/08/30 07:48:19;;;;;;;7.10;3.60;;;15.80;99.90;;;;;;5088709;28;20207;-66
2023/08/30 07:50:44;;;;;;;3.50;3.20;;;15.60;99.90;;;;;;5087348;28;20186;-67
2023/08/30 07:53:10;;;;;;;7.07;4.20;;;15.80;99.90;;;;;;5088618;28;20677;-67
2023/08/30 07:55:36;;;;;;;4.60;4.20;;;15.90;99.90;;;;;;5087962;28;20610;-67
2023/08/30 07:58:03;;;;;;;6.40;5.10;;;15.80;99.90;;;;;;5088614;28;20293;-68
2023/08/30 08:00:29;;;;;;;4.27;3.87;;;15.70;99.90;;;;;;5088351;28;20514;-68
2023/08/30 08:02:55;;;;;;;8.53;5.27;;;15.80;99.90;;;;;;5086955;28;20468;-68
2023/08/30 08:05:20;;;;;;;5.90;4.37;;;16.00;99.90;;;;;;5088288;28;20433;-67
2023/08/30 08:07:52;;;;;;;5.83;4.00;;;16.20;99.90;;;;;;5088259;28;20191;-67
2023/08/30 08:10:17;;;;;;;4.30;3.43;;;16.30;99.90;;;;;;5088339;28;20184;-67
2023/08/30 08:12:43;;;;;;;4.53;3.57;;;16.40;99.90;;;;;;5088490;28;20490;-67
2023/08/30 08:15:09;;;;;;;3.60;3.30;;;16.50;99.90;;;;;;5088185;28;20232;-68
2023/08/30 08:17:35;;;;;;;4.73;3.20;;;16.40;99.90;;;;;;5086677;28;20188;-68
2023/08/30 08:20:05;;;;;;;4.63;3.33;;;16.60;99.90;;;;;;5088111;28;20985;-68
2023/08/30 08:22:31;;;;;;;9.83;5.33;;;16.70;99.90;;;;;;5088119;28;20205;-67
2023/08/30 08:24:57;;;;;;;3.70;3.40;;;16.60;99.90;;;;;;5088025;28;20434;-68
2023/08/30 08:27:25;;;;;;;4.30;3.90;;;16.80;99.90;;;;;;5088580;28;20245;-67
2023/08/30 08:29:51;;;;;;;5.33;4.17;;;16.80;99.90;;;;;;5087876;28;21024;-67
2023/08/30 08:32:16;;;;;;;3.70;3.40;;;16.80;99.90;;;;;;5088018;28;20503;-67
2023/08/30 08:34:42;;;;;;;4.30;3.90;;;17.00;99.90;;;;;;5086200;28;20208;-67
2023/08/30 08:37:08;;;;;;;3.97;3.67;;;17.10;99.90;;;;;;5087907;28;20276;-67
2023/08/30 08:39:34;;;;;;;5.73;3.47;;;17.10;99.90;;;;;;5087959;28;20181;-68
2023/08/30 08:42:01;;;;;;;4.50;4.10;;;17.10;99.90;;;;;;5086300;28;20670;-67
2023/08/30 08:44:34;;;;;;;5.20;3.80;;;17.10;99.90;;;;;;5087809;28;21037;-68
2023/08/30 08:47:00;;;;;;;4.57;4.17;;;17.20;99.90;;;;;;5087602;28;20419;-68
2023/08/30 08:49:30;;;;;;;3.77;3.47;;;17.30;99.90;;;;;;5087697;28;20550;-67
2023/08/30 08:51:56;;;;;;;4.40;4.00;;;17.50;99.90;;;;;;5085993;28;20419;-68
2023/08/30 08:54:22;;;;;;;6.53;4.50;;;17.60;99.90;;;;;;5087441;28;20962;-68
2023/08/30 08:56:48;;;;;;;4.60;4.20;;;17.40;99.90;;;;;;5087128;28;20420;-68
2023/08/30 08:59:14;;;;;;;5.27;4.10;;;17.50;99.90;;;;;;5085993;28;20884;-68
2023/08/30 09:01:40;;;;;;;4.50;3.63;;;17.80;99.90;;;;;;5087147;28;20990;-68
2023/08/30 09:04:07;;;;;;;5.23;3.70;;;18.00;99.90;;;;;;5087984;28;20192;-68
2023/08/30 09:06:34;;;;;;;4.60;4.20;;;18.10;99.90;;;;;;5086833;28;20974;-68
2023/08/30 09:09:01;;;;;;;4.40;3.80;;;18.20;99.90;;;;;;5087954;28;20900;-68
2023/08/30 09:11:26;;;;;;;3.30;3.00;;;18.30;99.90;;;;;;5088506;28;20547;-68
2023/08/30 09:13:52;;;;;;;4.47;3.77;;;18.20;99.90;;;;;;5087595;28;20527;-67
2023/08/30 09:16:18;;;;;;;3.43;3.10;;;18.40;99.90;;;;;;5087555;28;20205;-67
2023/08/30 09:18:43;;;;;;;3.40;3.10;;;18.40;99.90;;;;;;5087755;28;20571;-68
2023/08/30 09:21:10;;;;;;;4.13;2.93;;;18.50;99.90;;;;;;5087396;28;20192;-68
2023/08/30 09:23:37;;;;;;;4.50;4.00;;;18.60;99.90;;;;;;5087001;28;20560;-68
2023/08/30 09:26:03;;;;;;;5.10;3.87;;;18.20;99.90;;;;;;5086886;28;20472;-68
2023/08/30 09:28:31;;;;;;;3.80;2.60;;;18.30;99.90;;;;;;5087169;28;20417;-68
2023/08/30 09:31:01;;;;;;;3.93;3.37;;;18.50;99.90;;;;;;5085398;28;20455;-69
2023/08/30 09:33:33;;;;;;;4.33;2.83;;;18.50;99.90;;;;;;5087088;28;20426;-67
2023/08/30 09:36:00;;;;;;;6.40;2.97;;;18.60;99.90;;;;;;5086753;28;20432;-68
2023/08/30 09:38:26;;;;;;;2.90;2.70;;;18.80;99.90;;;;;;5086752;28;20418;-67
2023/08/30 09:41:02;;;;;;;2.43;2.23;;;18.90;99.90;;;;;;5086667;28;20432;-67
2023/08/30 09:43:27;;;;;;;3.23;3.00;;;18.90;99.90;;;;;;5085655;28;21049;-69
2023/08/30 09:45:53;;;;;;;2.93;2.63;;;19.00;99.90;;;;;;5086679;28;20538;-68
2023/08/30 09:48:22;;;;;;;4.30;2.73;;;19.10;99.90;;;;;;5085598;28;20192;-68
2023/08/30 09:50:53;;;;;;;3.27;2.93;;;19.20;99.90;;;;;;5087295;28;20184;-68
2023/08/30 09:53:21;;;;;;;3.47;3.00;;;19.30;99.90;;;;;;5087324;28;20785;-68
2023/08/30 09:55:49;;;;;;;2.93;2.67;;;19.40;99.90;;;;;;5087206;28;20963;-68
2023/08/30 09:58:15;;;;;;;4.00;3.20;;;19.30;99.90;;;;;;5086010;28;20983;-68
2023/08/30 10:00:42;;;;;;;3.73;3.43;;;19.60;99.90;;;;;;5087289;28;20418;-68
2023/08/30 10:03:08;;;;;;;3.13;2.93;;;19.60;99.90;;;;;;5087239;28;20482;-68
2023/08/30 10:05:35;;;;;;;3.63;2.60;;;20.00;99.90;;;;;;5085513;28;20446;-70
2023/08/30 10:08:03;;;;;;;3.10;2.80;;;19.90;99.90;;;;;;5086824;28;20408;-68
2023/08/30 10:10:30;;;;;;;2.90;2.70;;;20.00;99.90;;;;;;5087054;28;20426;-69
2023/08/30 10:12:57;;;;;;;3.10;2.50;;;19.90;99.90;;;;;;5086457;28;20447;-68
2023/08/30 10:15:26;;;;;;;3.30;2.97;;;20.10;99.90;;;;;;5085333;28;20443;-68
2023/08/30 10:17:54;;;;;;;2.90;2.60;;;20.50;99.90;;;;;;5087700;28;20418;-67
2023/08/30 10:20:20;;;;;;;3.20;2.50;;;20.90;99.90;;;;;;5090316;28;20428;-68
2023/08/30 10:22:47;;;;;;;3.70;2.77;;;20.90;99.90;;;;;;5090116;28;20463;-67
2023/08/30 10:25:21;;;;;;;2.53;2.07;;;20.90;99.90;;;;;;5088467;28;20440;-68
2023/08/30 10:27:48;;;;;;;3.13;2.80;;;21.10;99.90;;;;;;5090202;28;20412;-68
2023/08/30 10:30:16;;;;;;;6.40;2.73;;;21.10;99.90;;;;;;5090664;28;20412;-67
2023/08/30 10:32:43;;;;;;;4.60;2.23;;;20.60;99.90;;;;;;5090524;28;20436;-67
2023/08/30 10:35:14;;;;;;;2.60;2.00;;;20.40;99.90;;;;;;5089208;28;20446;-68
2023/08/30 10:37:40;;;;;;;4.50;1.80;;;20.40;99.90;;;;;;5090834;28;20511;-68
2023/08/30 10:40:07;;;;;;;2.30;1.67;;;20.40;99.90;;;;;;5090468;28;20424;-68
2023/08/30 10:42:33;;;;;;;3.77;2.00;;;20.50;99.90;;;;;;5090397;28;20456;-68
2023/08/30 10:45:06;;;;;;;1.70;1.60;;;21.00;99.90;;;;;;5089975;28;20442;-68
2023/08/30 10:47:37;;;;;;;2.20;2.00;;;21.20;99.90;;;;;;5089961;28;21256;-67
2023/08/30 10:50:10;;;;;;;2.63;2.43;;;21.40;99.90;;;;;;5089662;28;20408;-68
2023/08/30 10:52:36;;;;;;;2.30;2.20;;;21.30;99.90;;;;;;5089586;28;20424;-68
2023/08/30 10:55:15;;;;;;;2.63;2.43;;;21.30;99.90;;;;;;5089232;28;20472;-68
2023/08/30 10:57:45;;;;;;;2.70;2.50;;;21.00;99.90;;;;;;5089508;28;20178;-67
2023/08/30 11:00:19;;;;;;;4.50;3.27;;;20.70;99.90;;;;;;5089362;28;20408;-67
2023/08/30 11:02:50;;;;;;;4.80;3.00;;;20.50;99.90;;;;;;5087695;28;20471;-68
2023/08/30 11:05:17;;;;;;;3.50;3.10;;;20.50;99.90;;;;;;5089364;28;20790;-68
2023/08/30 11:07:44;;;;;;;4.03;3.00;;;20.80;99.90;;;;;;5089273;28;20915;-68
2023/08/30 11:10:10;;;;;;;3.73;3.10;;;21.00;99.90;;;;;;5089282;28;20450;-68
2023/08/30 11:12:35;;;;;;;3.90;3.50;;;21.20;99.90;;;;;;5089048;28;20908;-68
2023/08/30 11:15:02;;;;;;;2.43;2.23;;;21.30;99.90;;;;;;5088867;28;20447;-68
2023/08/30 11:17:28;;;;;;;2.73;2.53;;;21.70;99.90;;;;;;5089196;28;20176;-68
2023/08/30 11:20:08;;;;;;;2.87;2.57;;;22.00;99.90;;;;;;5089024;28;21021;-68
2023/08/30 11:22:44;;;;;;;3.47;2.47;;;22.30;99.90;;;;;;5089387;28;20463;-68
2023/08/30 11:25:11;;;;;;;2.60;2.40;;;22.40;99.90;;;;;;5089419;28;20457;-68
2023/08/30 11:27:38;;;;;;;2.87;2.67;;;22.40;99.90;;;;;;5089344;28;20405;-68
2023/08/30 11:30:05;;;;;;;3.30;3.07;;;22.50;99.90;;;;;;5088063;28;20482;-68
2023/08/30 11:32:38;;;;;;;3.27;3.07;;;22.60;99.90;;;;;;5088866;28;20454;-68
2023/08/30 11:35:05;;;;;;;2.73;2.53;;;22.70;99.90;;;;;;5088746;28;21418;-68
2023/08/30 11:37:31;;;;;;;2.63;2.43;;;22.80;99.90;;;;;;5088693;28;20881;-69
2023/08/30 11:39:58;;;;;;;2.73;2.53;;;22.80;99.90;;;;;;5088658;28;20856;-68
2023/08/30 11:42:25;;;;;;;2.70;2.50;;;22.70;99.90;;;;;;5088415;28;20469;-68
2023/08/30 11:44:51;;;;;;;3.43;2.90;;;22.70;99.90;;;;;;5088710;28;20436;-68
2023/08/30 11:47:24;;;;;;;3.13;2.83;;;22.70;99.90;;;;;;5088582;28;20410;-68
2023/08/30 11:49:53;;;;;;;5.53;2.60;;;22.90;99.90;;;;;;5087138;28;20762;-69
2023/08/30 11:52:19;;;;;;;6.27;2.70;;;23.00;99.90;;;;;;5086910;28;21067;-68
2023/08/30 11:54:47;;;;;;;3.37;2.87;;;23.00;99.90;;;;;;5088516;28;20466;-68
2023/08/30 11:57:13;;;;;;;2.83;2.53;;;23.20;99.90;;;;;;5088435;28;20426;-68
2023/08/30 11:59:39;;;;;;;2.63;2.43;;;23.30;99.90;;;;;;5088432;28;20430;-68
2023/08/30 12:02:06;;;;;;;4.27;2.57;;;23.20;99.90;;;;;;5088140;28;20180;-68
2023/08/30 12:04:31;;;;;;;2.80;2.30;;;22.90;99.90;;;;;;5088243;28;20789;-69
2023/08/30 12:06:58;;;;;;;6.10;2.10;;;22.60;99.90;;;;;;5088658;28;20502;-68
2023/08/30 12:09:30;;;;;;;6.80;2.37;;;22.10;99.90;;;;;;5088510;28;20188;-68
2023/08/30 12:12:05;;;;;;;2.20;2.00;;;21.90;99.90;;;;;;5088120;28;20814;-68
2023/08/30 12:14:34;;;;;;;3.93;2.50;;;21.70;99.90;;;;;;5088214;28;20433;-69
2023/08/30 12:17:00;;;;;;;3.77;2.93;;;21.70;99.90;;;;;;5087018;28;20424;-67
2023/08/30 12:19:28;;;;;;;2.20;2.00;;;21.70;99.90;;;;;;5088847;28;20416;-68
2023/08/30 12:21:53;;;;;;;4.33;1.93;;;22.00;99.90;;;;;;5087980;28;20180;-67
2023/08/30 12:24:19;;;;;;;1.90;1.80;;;22.30;99.90;;;;;;5088162;28;20417;-68
2023/08/30 12:26:45;;;;;;;1.90;1.80;;;22.20;99.90;;;;;;5088757;28;20186;-68
2023/08/30 12:29:10;;;;;;;2.90;1.90;;;21.90;99.90;;;;;;5088459;28;20183;-68
2023/08/30 12:31:37;;;;;;;2.10;1.90;;;21.70;99.90;;;;;;5087174;28;20229;-69
2023/08/30 12:34:03;;;;;;;2.07;1.87;;;21.70;99.90;;;;;;5088254;28;20197;-68
2023/08/30 12:36:28;;;;;;;3.40;2.30;;;21.80;99.90;;;;;;5087683;28;20938;-68
2023/08/30 12:38:54;;;;;;;2.33;2.13;;;21.90;99.90;;;;;;5087844;28;20187;-68